METAR Data
IDs: Format: Raw Decoded Include TAF

Data at: 1239 UTC 19 Feb 2020

METAR for:KCOS (Colorado Spring Muni, CO, US)
Text:KCOS 191154Z 02004KT 10SM OVC011 M04/M07 A3012 RMK AO2 SLP253 4/002 70004 I6007 T10441072 11039 21050 55005
Temperature: -4.4°C ( 24°F)
Dewpoint: -7.2°C ( 19°F) [RH = 81%]
Pressure (altimeter):30.12 inches Hg (1020.1 mb) [Sea level pressure: 1025.3 mb]
Winds:from the NNE (20 degrees) at 5 MPH (4 knots; 2.1 m/s)
Visibility:10 or more sm (16+ km)
Ceiling:1100 feet AGL
Clouds: overcast cloud deck at 1100 feet AGL